createdAt,value
2018-02-19T06:16:43.968Z,24.40
2018-02-19T06:19:15.882Z,27.10
2018-02-19T06:21:47.767Z,27.00
2018-02-19T06:24:19.659Z,26.67
2018-02-19T06:26:51.776Z,26.53
2018-02-19T06:29:23.667Z,26.40
2018-02-19T06:31:56.235Z,27.00
2018-02-19T06:34:28.126Z,26.47
2018-02-19T06:37:00.340Z,27.63
2018-02-19T06:39:32.243Z,26.17
2018-02-19T06:42:04.363Z,26.83
2018-02-19T06:44:36.262Z,29.20
2018-02-19T06:47:08.392Z,25.80
2018-02-19T06:49:40.299Z,26.83
2018-02-19T06:52:12.179Z,26.70
2018-02-19T06:54:44.840Z,27.23
2018-02-19T06:57:16.715Z,25.23
2018-02-19T06:59:49.478Z,26.60
2018-02-19T07:02:21.697Z,26.90
2018-02-19T07:04:53.599Z,26.70
2018-02-19T07:07:25.667Z,25.43
2018-02-19T07:09:57.631Z,26.77
2018-02-19T07:12:29.520Z,26.47
2018-02-19T07:15:02.275Z,26.27
2018-02-19T07:17:34.163Z,24.97
2018-02-19T07:20:06.827Z,26.97
2018-02-19T07:22:38.703Z,25.37
2018-02-19T07:25:11.359Z,25.57
2018-02-19T07:27:43.231Z,24.53
2018-02-19T07:30:15.126Z,25.30
2018-02-19T07:32:47.015Z,25.47
2018-02-19T07:35:18.899Z,25.23
2018-02-19T07:37:50.796Z,25.17
2018-02-19T07:40:22.684Z,24.97
2018-02-19T07:42:54.604Z,24.77
2018-02-19T07:45:26.461Z,23.60
2018-02-19T07:47:59.107Z,24.80
2018-02-19T07:50:30.994Z,23.77
2018-02-19T07:53:03.642Z,24.60
2018-02-19T07:55:35.751Z,24.87
2018-02-19T07:58:08.391Z,24.27
2018-02-19T08:00:40.300Z,24.50
2018-02-19T08:03:12.172Z,23.30
2018-02-19T08:05:44.075Z,23.67
2018-02-19T08:08:15.951Z,22.43
2018-02-19T08:10:48.151Z,21.33
2018-02-19T08:13:20.319Z,22.73
2018-02-19T08:15:52.235Z,23.40
2018-02-19T08:18:24.111Z,22.53
2018-02-19T08:20:56.307Z,22.70
2018-02-19T08:23:28.253Z,23.33
2018-02-19T08:26:00.996Z,23.77
2018-02-19T08:28:32.951Z,22.47
2018-02-19T08:31:04.855Z,23.00
2018-02-19T08:33:37.591Z,22.80
2018-02-19T08:36:09.556Z,21.77
2018-02-19T08:38:41.464Z,21.63
2018-02-19T08:41:14.131Z,22.20
2018-02-19T08:43:46.779Z,21.67
2018-02-19T08:46:18.679Z,21.03
2018-02-19T08:48:58.531Z,21.77
2018-02-19T08:51:30.706Z,20.60
2018-02-19T08:54:02.871Z,21.33
2018-02-19T08:56:34.765Z,20.17
2018-02-19T08:59:06.651Z,20.83
2018-02-19T09:01:38.539Z,19.77
2018-02-19T09:04:10.428Z,20.53
2018-02-19T09:06:42.319Z,21.47
2018-02-19T09:09:14.209Z,21.33
2018-02-19T09:11:46.875Z,21.77
2018-02-19T09:14:18.753Z,21.00
2018-02-19T09:16:51.420Z,20.90
2018-02-19T09:19:23.617Z,19.33
2018-02-19T09:21:55.510Z,19.20
2018-02-19T09:24:27.400Z,19.87
2018-02-19T09:26:59.352Z,19.73
2018-02-19T09:29:31.273Z,19.10
2018-02-19T09:32:03.899Z,19.80
2018-02-19T09:34:36.103Z,19.43
2018-02-19T09:37:07.999Z,19.60
2018-02-19T09:39:39.883Z,19.70
2018-02-19T09:42:12.430Z,19.77
2018-02-19T09:44:43.951Z,19.40
2018-02-19T09:47:15.847Z,18.30
2018-02-19T09:49:47.736Z,17.37
2018-02-19T09:52:19.939Z,19.50
2018-02-19T09:54:51.823Z,18.43
2018-02-19T09:57:23.721Z,18.63
2018-02-19T09:59:55.595Z,18.33
2018-02-19T10:02:28.505Z,17.93
2018-02-19T10:05:00.410Z,17.43
2018-02-19T10:07:32.375Z,18.07
2018-02-19T10:10:04.342Z,17.20
2018-02-19T10:12:36.293Z,17.93
2018-02-19T10:15:08.414Z,18.23
2018-02-19T10:17:40.579Z,18.60
2018-02-19T10:20:12.468Z,17.20
2018-02-19T10:22:44.608Z,16.67
2018-02-19T10:25:17.327Z,17.13
2018-02-19T10:27:49.983Z,17.70
2018-02-19T10:30:21.882Z,16.43
2018-02-19T10:32:53.768Z,16.67
2018-02-19T10:35:26.407Z,16.93
2018-02-19T10:37:58.311Z,17.73
2018-02-19T10:40:31.208Z,16.53
2018-02-19T10:43:03.124Z,17.40
2018-02-19T10:45:34.991Z,17.33
2018-02-19T10:48:06.931Z,16.93
2018-02-19T10:50:39.055Z,16.40
2018-02-19T10:53:10.943Z,17.47
2018-02-19T10:55:43.079Z,18.30
2018-02-19T10:58:14.995Z,17.30
2018-02-19T11:00:48.382Z,15.77
2018-02-19T11:03:20.347Z,17.60
2018-02-19T11:05:52.464Z,17.80
2018-02-19T11:08:24.359Z,16.67
2018-02-19T11:10:56.243Z,16.47
2018-02-19T11:13:28.156Z,17.47
2018-02-19T11:16:00.107Z,17.43
2018-02-19T11:18:32.002Z,17.93
2018-02-19T11:21:03.971Z,17.63
2018-02-19T11:23:35.869Z,16.17
2018-02-19T11:26:08.511Z,17.40
2018-02-19T11:28:40.480Z,16.13
2018-02-19T11:31:12.436Z,17.30
2018-02-19T11:33:44.331Z,17.00
2018-02-19T11:36:17.240Z,17.30
2018-02-19T11:38:55.378Z,19.00
2018-02-19T11:41:21.262Z,17.83
2018-02-19T11:43:53.172Z,16.20
2018-02-19T11:46:25.072Z,17.47
2018-02-19T11:48:57.728Z,17.43
2018-02-19T11:51:30.376Z,16.60
2018-02-19T11:54:02.267Z,16.43
2018-02-19T11:56:34.153Z,17.87
2018-02-19T11:59:06.325Z,17.47
2018-02-19T12:01:38.207Z,17.77
2018-02-19T12:04:10.195Z,18.30
2018-02-19T12:06:42.071Z,15.00
2018-02-19T12:09:14.019Z,16.53
2018-02-19T12:11:45.980Z,17.70
2018-02-19T12:14:17.903Z,17.70
2018-02-19T12:16:49.796Z,16.87
2018-02-19T12:19:21.701Z,18.27
2018-02-19T12:21:54.356Z,17.33
2018-02-19T12:24:26.252Z,17.63
2018-02-19T12:26:58.135Z,16.40
2018-02-19T12:29:30.029Z,17.63
2018-02-19T12:32:02.136Z,18.00
2018-02-19T12:34:34.305Z,17.00
2018-02-19T12:37:06.182Z,16.13
2018-02-19T12:39:38.078Z,15.30
2018-02-19T12:42:09.962Z,16.07
2018-02-19T12:44:42.630Z,16.83
2018-02-19T12:47:14.511Z,16.93
2018-02-19T12:49:46.422Z,14.97
2018-02-19T12:52:18.295Z,16.87
2018-02-19T12:54:50.192Z,15.60
2018-02-19T12:57:22.074Z,17.07
2018-02-19T12:59:53.964Z,17.47
2018-02-19T13:02:25.847Z,15.87
2018-02-19T13:04:58.914Z,16.70
2018-02-19T13:07:31.557Z,17.90
2018-02-19T13:10:03.453Z,16.97
2018-02-19T13:12:35.338Z,17.13
2018-02-19T13:15:07.998Z,16.40
2018-02-19T13:17:39.875Z,17.07
2018-02-19T13:20:12.537Z,15.97
2018-02-19T13:22:44.415Z,17.70
2018-02-19T13:25:17.072Z,17.73
2018-02-19T13:27:48.958Z,19.20
2018-02-19T13:30:21.619Z,16.90
2018-02-19T13:32:53.503Z,18.63
2018-02-19T13:35:26.166Z,17.40
2018-02-19T13:37:58.050Z,17.17
2018-02-19T13:40:30.715Z,17.67
2018-02-19T13:43:03.364Z,16.77
2018-02-19T13:45:35.260Z,16.23
2018-02-19T13:48:08.159Z,16.97
2018-02-19T13:50:40.051Z,16.83
2018-02-19T13:53:11.936Z,16.90
2018-02-19T13:55:43.841Z,17.63
2018-02-19T13:58:15.720Z,14.93
2018-02-19T14:00:47.973Z,17.83
2018-02-19T14:03:19.852Z,17.40
2018-02-19T14:05:51.759Z,16.50
2018-02-19T14:08:24.631Z,18.40
2018-02-19T14:10:56.516Z,16.27
2018-02-19T14:13:29.168Z,16.17
2018-02-19T14:16:01.063Z,15.47
2018-02-19T14:18:32.939Z,16.93
2018-02-19T14:21:04.831Z,16.50
2018-02-19T14:23:36.722Z,16.93
2018-02-19T14:26:08.619Z,17.10
2018-02-19T14:28:40.695Z,17.73
2018-02-19T14:31:12.588Z,16.73
2018-02-19T14:33:44.475Z,17.63
2018-02-19T14:36:17.219Z,18.50
2018-02-19T14:38:49.344Z,16.43
2018-02-19T14:41:21.512Z,17.30
2018-02-19T14:43:53.679Z,18.00
2018-02-19T14:46:25.576Z,18.23
2018-02-19T14:48:57.463Z,18.17
2018-02-19T14:51:29.429Z,18.03
2018-02-19T14:54:01.247Z,16.57
2018-02-19T14:56:33.143Z,17.17
2018-02-19T14:59:05.083Z,17.17
2018-02-19T15:01:36.991Z,17.17
2018-02-19T15:04:08.875Z,17.73
2018-02-19T15:06:41.033Z,16.87
2018-02-19T15:09:13.192Z,18.60
2018-02-19T15:11:45.088Z,16.63
2018-02-19T15:14:16.963Z,17.47
2018-02-19T15:16:48.863Z,18.20
2018-02-19T15:19:20.742Z,15.93
2018-02-19T15:21:52.643Z,16.77
2018-02-19T15:24:24.765Z,16.67
2018-02-19T15:26:56.661Z,16.30
2018-02-19T15:29:28.543Z,16.50
2018-02-19T15:32:00.442Z,16.90
2018-02-19T15:34:32.338Z,17.23
2018-02-19T15:37:04.228Z,17.10
2018-02-19T15:39:36.432Z,16.60
2018-02-19T15:42:08.320Z,17.60
2018-02-19T15:44:40.541Z,17.03
2018-02-19T15:47:13.195Z,16.67
2018-02-19T15:49:45.083Z,15.97
2018-02-19T15:52:17.779Z,18.43
2018-02-19T15:54:49.667Z,18.20
2018-02-19T15:57:21.559Z,16.53
2018-02-19T15:59:54.215Z,17.47
2018-02-19T16:02:26.104Z,17.13
2018-02-19T16:04:57.980Z,16.87
2018-02-19T16:07:30.880Z,17.87
2018-02-19T16:10:02.788Z,16.50
2018-02-19T16:12:34.682Z,17.13
2018-02-19T16:15:07.325Z,18.13
2018-02-19T16:17:39.215Z,18.50
2018-02-19T16:20:11.905Z,17.23
2018-02-19T16:22:44.564Z,16.73
2018-02-19T16:25:17.211Z,18.13
2018-02-19T16:27:49.099Z,19.60
2018-02-19T16:30:20.983Z,17.67
2018-02-19T16:32:52.879Z,17.27
2018-02-19T16:35:24.760Z,18.90
2018-02-19T16:37:56.662Z,18.23
2018-02-19T16:40:29.305Z,17.73
2018-02-19T16:43:01.198Z,17.63
2018-02-19T16:45:33.838Z,17.50
2018-02-19T16:48:05.731Z,18.50
2018-02-19T16:50:38.367Z,18.03
2018-02-19T16:53:11.029Z,16.37
2018-02-19T16:55:42.912Z,19.63
2018-02-19T16:58:14.812Z,19.67
2018-02-19T17:00:47.456Z,18.97
2018-02-19T17:03:19.356Z,17.63
2018-02-19T17:05:51.236Z,19.57
2018-02-19T17:08:23.131Z,20.20
2018-02-19T17:10:55.014Z,18.93
2018-02-19T17:13:26.903Z,18.47
2018-02-19T17:15:58.790Z,20.20
2018-02-19T17:18:30.931Z,19.07
2018-02-19T17:21:02.814Z,20.00
2018-02-19T17:23:34.703Z,19.63
2018-02-19T17:26:06.615Z,20.93
2018-02-19T17:28:39.239Z,20.57
2018-02-19T17:31:11.124Z,20.40
2018-02-19T17:33:43.787Z,21.00
2018-02-19T17:36:15.676Z,19.97
2018-02-19T17:38:47.578Z,20.07
2018-02-19T17:41:19.455Z,19.20
2018-02-19T17:43:51.352Z,19.03
2018-02-19T17:46:23.992Z,19.47
2018-02-19T17:48:55.887Z,19.97
2018-02-19T17:51:28.794Z,19.83
2018-02-19T17:54:00.692Z,19.20
2018-02-19T17:56:33.295Z,20.60
2018-02-19T17:59:05.187Z,20.00
2018-02-19T18:01:37.067Z,20.87
2018-02-19T18:04:08.961Z,19.90
2018-02-19T18:06:40.840Z,20.13
2018-02-19T18:09:13.499Z,19.80
2018-02-19T18:11:45.716Z,18.63
2018-02-19T18:14:17.613Z,20.33
2018-02-19T18:16:49.532Z,19.67
2018-02-19T18:19:21.451Z,20.00
2018-02-19T18:21:53.564Z,19.20
2018-02-19T18:24:25.486Z,20.07
2018-02-19T18:26:57.364Z,19.83
2018-02-19T18:29:30.026Z,19.20
2018-02-19T18:32:02.703Z,21.57
2018-02-19T18:34:34.908Z,22.00
2018-02-19T18:37:06.811Z,20.20
2018-02-19T18:39:38.695Z,20.63
2018-02-19T18:42:10.579Z,19.47
2018-02-19T18:44:43.474Z,19.93
2018-02-19T18:47:15.356Z,21.13
2018-02-19T18:49:47.243Z,19.13
2018-02-19T18:52:19.127Z,20.53
2018-02-19T18:54:51.779Z,21.50
2018-02-19T18:57:23.671Z,21.33
2018-02-19T18:59:56.318Z,20.30
2018-02-19T19:02:28.968Z,20.53
2018-02-19T19:05:00.859Z,20.93
2018-02-19T19:10:52.951Z,22.03
2018-02-19T19:13:25.607Z,23.67
2018-02-19T19:15:57.496Z,21.30
2018-02-19T19:18:30.162Z,21.03
2018-02-19T19:21:02.795Z,21.43
2018-02-19T19:23:34.768Z,20.50
2018-02-19T19:26:06.730Z,21.17
2018-02-19T19:28:38.620Z,21.33
2018-02-19T19:31:11.260Z,19.83
2018-02-19T19:33:43.141Z,21.57
2018-02-19T19:36:15.020Z,21.83
2018-02-19T19:38:47.683Z,21.27
2018-02-19T19:41:19.556Z,21.43
2018-02-19T19:43:52.219Z,21.97
2018-02-19T19:46:24.083Z,22.00
2018-02-19T19:48:55.987Z,21.37
2018-02-19T19:51:27.855Z,23.00
2018-02-19T19:53:59.798Z,22.73
2018-02-19T19:56:31.879Z,21.53
2018-02-19T19:59:04.027Z,22.63
2018-02-19T20:01:36.119Z,22.17
2018-02-19T20:04:08.004Z,21.43
2018-02-19T20:06:39.880Z,29.63
2018-02-19T20:09:11.771Z,26.47
2018-02-19T20:11:44.407Z,24.10
2018-02-19T20:14:16.519Z,23.57
2018-02-19T20:16:48.683Z,23.47
2018-02-19T20:19:20.577Z,21.63
2018-02-19T20:21:52.447Z,23.57
2018-02-19T20:24:24.338Z,23.17
2018-02-19T20:26:56.982Z,22.90
2018-02-19T20:29:28.867Z,23.57
2018-02-19T20:32:00.740Z,22.00
2018-02-19T20:34:32.634Z,22.63
2018-02-19T20:37:04.515Z,23.17
2018-02-19T20:39:36.397Z,21.00
2018-02-19T20:42:08.271Z,22.20
2018-02-19T20:44:40.471Z,22.80
2018-02-19T20:47:12.342Z,23.60
2018-02-19T20:49:44.244Z,23.30
2018-02-19T20:52:16.133Z,22.17
